Estación Meteorológica Peña el Pijo (Robertgarden) [ 01/30/23 13:51:27 CET ]

Fecha Hora Presion(HPa) Temp (°C) Humedad % Rocio (°C) Viento ( m/s) Direccion Lluvia 1Hora(mm) Lluvia 24H(mm) LLuvia Total(mm)
2012-Mar-24 01:01:10 1012.400 1.3 81 -1.6         155.40
2012-Mar-24 02:03:26 1012.300 0.6 82 -2.1         155.40
2012-Mar-24 03:01:47 1011.900 0.7 83 -1.9         155.40
2012-Mar-24 04:10:05 1011.400 0.4 84 -2.0         155.40
2012-Mar-24 05:01:47 1011.300 0.2 85 -2.0         155.40
2012-Mar-24 06:03:37 1011.500 -0.2 85 -2.4         155.40
2012-Mar-24 07:01:14 1011.900 -0.1 86 -2.1         155.40
2012-Mar-24 08:01:18 1012.300 0.7 86 -1.4         155.40
2012-Mar-24 09:01:14 1012.600 2.9 81 -0.0         155.40
2012-Mar-24 10:01:15 1012.600 5.5 75 1.4         155.40
2012-Mar-24 11:01:13 1012.800 9.3 61 2.2         155.40
2012-Mar-24 12:01:13 1012.700 11.5 52 2.0         155.40
2012-Mar-24 13:01:14 1012.300 12.4 50 2.3         155.40
2012-Mar-24 14:01:14 1012.700 11.9 51 2.1         155.40
2012-Mar-24 15:01:14 1012.400 10.8 55 2.1         155.40
2012-Mar-24 16:01:13 1012.100 11.9 54 2.8         155.40
2012-Mar-24 17:01:18 1012.100 12.3 54 3.2         155.40
2012-Mar-24 18:01:14 1012.300 10.9 57 2.7         155.40
2012-Mar-24 19:01:15 1012.700 10.2 61 3.0         155.40
2012-Mar-24 20:01:15 1013.100 8.0 68 2.5         155.40
2012-Mar-24 21:01:19 1013.900 5.4 74 1.1         155.40
2012-Mar-24 22:01:17 1014.200 4.0 79 0.7         155.40
2012-Mar-24 23:01:14 1014.300 3.0 82 0.2         155.40

Temperatura Máxima:12°    Temperatura Mínima:
Presión Máxima:1014.300 Hpa    Presión Mínima:1011.300 Hpa


Volver